Time,TemperatureF,DewpointF,PressureIn,WindDirection,WindDirectionDegrees,WindSpeedMPH,WindSpeedGustMPH,Humidity,HourlyPrecipIn,Conditions,Clouds,dailyrainin,SoftwareType,DateUTC
2013-05-24 00:01:00,48.8,45.1,30.29,NNW,338,0.0,0.0,87,0.00,,,0.00,WUHU216HW,2013-05-24 07:01:00,
2013-05-24 00:06:00,48.6,44.9,30.29,NNW,338,0.0,0.0,87,0.00,,,0.00,WUHU216HW,2013-05-24 07:06:00,
2013-05-24 00:11:00,48.4,44.7,30.29,NNW,338,0.0,0.0,87,0.00,,,0.00,WUHU216HW,2013-05-24 07:11:00,
2013-05-24 00:16:00,48.2,44.6,30.29,NNW,338,0.0,0.0,87,0.00,,,0.00,WUHU216HW,2013-05-24 07:16:00,
2013-05-24 00:21:00,48.1,44.4,30.28,NNW,338,0.0,0.0,87,0.00,,,0.00,WUHU216HW,2013-05-24 07:21:00,
2013-05-24 00:26:00,47.9,44.6,30.29,NNW,338,0.0,0.0,88,0.00,,,0.00,WUHU216HW,2013-05-24 07:26:00,
2013-05-24 00:31:00,47.9,44.6,30.29,NNW,338,0.0,0.0,88,0.00,,,0.00,WUHU216HW,2013-05-24 07:31:00,
2013-05-24 00:36:00,47.9,44.6,30.29,NNW,338,0.0,0.0,88,0.00,,,0.00,WUHU216HW,2013-05-24 07:36:00,
2013-05-24 00:41:00,47.7,44.4,30.29,NNW,338,0.0,0.0,88,0.00,,,0.00,WUHU216HW,2013-05-24 07:41:00,
2013-05-24 00:46:00,47.7,44.4,30.28,NNW,338,0.0,0.0,88,0.00,,,0.00,WUHU216HW,2013-05-24 07:46:00,
2013-05-24 00:51:00,47.5,44.2,30.28,NNW,338,0.0,0.2,88,0.00,,,0.00,WUHU216HW,2013-05-24 07:51:00,
2013-05-24 00:56:00,47.3,44.0,30.28,NNW,338,0.0,0.2,88,0.00,,,0.00,WUHU216HW,2013-05-24 07:56:00,
2013-05-24 01:01:00,47.3,44.0,30.28,NNW,338,0.0,0.0,88,0.00,,,0.00,WUHU216HW,2013-05-24 08:01:00,
2013-05-24 01:06:00,47.5,44.2,30.28,NNW,338,0.0,0.0,88,0.00,,,0.00,WUHU216HW,2013-05-24 08:06:00,
2013-05-24 01:11:00,47.5,44.2,30.29,NNW,338,0.0,0.0,88,0.00,,,0.00,WUHU216HW,2013-05-24 08:11:00,
2013-05-24 01:16:00,47.5,44.2,30.29,NNW,338,0.0,0.0,88,0.00,,,0.00,WUHU216HW,2013-05-24 08:16:00,
2013-05-24 01:41:00,47.7,44.4,30.29,NNW,338,0.0,0.0,88,0.00,,,0.00,WUHU216HW,2013-05-24 08:41:00,
2013-05-24 01:46:00,47.7,44.4,30.28,NNW,338,0.0,0.0,88,0.00,,,0.00,WUHU216HW,2013-05-24 08:46:00,
2013-05-24 01:51:00,47.7,44.4,30.28,NNW,338,0.0,0.0,88,0.00,,,0.00,WUHU216HW,2013-05-24 08:51:00,
2013-05-24 01:56:00,47.5,44.2,30.28,NNW,338,0.0,0.0,88,0.00,,,0.00,WUHU216HW,2013-05-24 08:56:00,
2013-05-24 02:01:00,47.5,44.5,30.28,NNW,338,0.0,0.0,89,0.00,,,0.00,WUHU216HW,2013-05-24 09:01:00,
2013-05-24 02:06:00,47.5,44.2,30.28,NNW,338,0.0,0.0,88,0.00,,,0.00,WUHU216HW,2013-05-24 09:06:00,
2013-05-24 02:11:00,47.5,44.5,30.28,NNW,338,0.0,0.0,89,0.00,,,0.00,WUHU216HW,2013-05-24 09:11:00,
2013-05-24 02:16:00,47.5,44.5,30.28,NNW,338,0.0,0.0,89,0.00,,,0.00,WUHU216HW,2013-05-24 09:16:00,
2013-05-24 02:21:00,47.5,44.5,30.28,NNW,338,0.0,0.0,89,0.00,,,0.00,WUHU216HW,2013-05-24 09:21:00,
2013-05-24 02:26:00,47.7,44.6,30.28,NNW,338,0.0,0.0,89,0.00,,,0.00,WUHU216HW,2013-05-24 09:26:00,
2013-05-24 02:31:00,47.7,44.4,30.28,NNW,338,0.0,0.0,88,0.00,,,0.00,WUHU216HW,2013-05-24 09:31:00,
2013-05-24 02:35:00,47.7,44.4,30.28,NNW,338,0.0,0.0,88,0.00,,,0.00,WUHU216HW,2013-05-24 09:35:00,
2013-05-24 02:40:00,47.5,44.2,30.28,NNW,338,0.0,0.0,88,0.00,,,0.00,WUHU216HW,2013-05-24 09:40:00,
2013-05-24 02:45:00,47.5,44.2,30.29,NNW,338,0.0,0.0,88,0.00,,,0.00,WUHU216HW,2013-05-24 09:45:00,
2013-05-24 02:50:00,47.5,44.2,30.29,NNW,338,0.0,0.0,88,0.00,,,0.00,WUHU216HW,2013-05-24 09:50:00,
2013-05-24 02:55:00,47.5,44.2,30.29,NNW,338,0.0,0.0,88,0.00,,,0.00,WUHU216HW,2013-05-24 09:55:00,
2013-05-24 03:00:00,47.5,44.2,30.29,NNW,338,0.0,0.0,88,0.00,,,0.00,WUHU216HW,2013-05-24 10:00:00,
2013-05-24 03:05:00,47.3,44.4,30.29,NNW,338,0.0,0.0,89,0.00,,,0.00,WUHU216HW,2013-05-24 10:05:00,
2013-05-24 03:10:00,47.3,44.4,30.29,NNW,338,0.0,0.0,89,0.00,,,0.00,WUHU216HW,2013-05-24 10:10:00,
2013-05-24 03:15:00,47.3,44.4,30.29,NNW,338,0.0,0.0,89,0.00,,,0.00,WUHU216HW,2013-05-24 10:15:00,
2013-05-24 03:38:00,47.5,44.5,30.29,NNW,338,0.0,0.0,89,0.00,,,0.00,WUHU216HW,2013-05-24 10:38:00,
2013-05-24 03:43:00,47.5,44.5,30.29,NNW,338,0.0,0.0,89,0.00,,,0.00,WUHU216HW,2013-05-24 10:43:00,
2013-05-24 03:48:00,47.5,44.5,30.29,NNW,338,0.0,0.0,89,0.00,,,0.00,WUHU216HW,2013-05-24 10:48:00,
2013-05-24 03:53:00,47.3,44.4,30.29,NNW,338,0.0,0.0,89,0.00,,,0.00,WUHU216HW,2013-05-24 10:53:00,
2013-05-24 03:58:00,47.2,44.2,30.28,NNW,338,0.0,0.0,89,0.00,,,0.00,WUHU216HW,2013-05-24 10:58:00,
2013-05-24 04:03:00,47.2,44.2,30.28,NNW,338,0.0,0.0,89,0.00,,,0.00,WUHU216HW,2013-05-24 11:03:00,
2013-05-24 04:08:00,47.2,44.2,30.28,NNW,338,0.0,0.0,89,0.00,,,0.00,WUHU216HW,2013-05-24 11:08:00,
2013-05-24 04:13:00,47.2,44.2,30.29,NNW,338,0.0,0.0,89,0.00,,,0.00,WUHU216HW,2013-05-24 11:13:00,
2013-05-24 04:18:00,47.2,44.2,30.29,NNW,338,0.0,0.0,89,0.00,,,0.00,WUHU216HW,2013-05-24 11:18:00,
2013-05-24 04:23:00,47.2,44.2,30.29,NNW,338,0.0,0.0,89,0.00,,,0.00,WUHU216HW,2013-05-24 11:23:00,
2013-05-24 04:28:00,47.2,44.2,30.29,NNW,338,0.0,0.0,89,0.00,,,0.00,WUHU216HW,2013-05-24 11:28:00,
2013-05-24 04:33:00,46.8,43.8,30.29,NNW,338,0.0,0.0,89,0.00,,,0.00,WUHU216HW,2013-05-24 11:33:00,
2013-05-24 04:38:00,46.8,43.8,30.29,NNW,338,0.0,0.0,89,0.00,,,0.00,WUHU216HW,2013-05-24 11:38:00,
2013-05-24 04:43:00,46.6,43.9,30.29,NNW,338,0.0,0.0,90,0.00,,,0.00,WUHU216HW,2013-05-24 11:43:00,
2013-05-24 04:47:00,46.8,44.1,30.29,NNW,338,0.0,0.0,90,0.00,,,0.00,WUHU216HW,2013-05-24 11:47:00,
2013-05-24 04:52:00,46.8,44.1,30.29,NNW,338,0.0,0.0,90,0.00,,,0.00,WUHU216HW,2013-05-24 11:52:00,
2013-05-24 04:57:00,46.8,44.1,30.29,NNW,338,0.0,0.0,90,0.00,,,0.00,WUHU216HW,2013-05-24 11:57:00,
2013-05-24 05:02:00,46.8,44.1,30.30,NNW,338,0.0,0.0,90,0.00,,,0.00,WUHU216HW,2013-05-24 12:02:00,
2013-05-24 05:07:00,46.8,43.8,30.29,NNW,338,0.0,0.0,89,0.00,,,0.00,WUHU216HW,2013-05-24 12:07:00,
2013-05-24 05:12:00,46.8,43.8,30.29,NNW,338,0.0,0.0,89,0.00,,,0.00,WUHU216HW,2013-05-24 12:12:00,
2013-05-24 05:17:00,46.6,43.9,30.29,NNW,338,0.0,0.0,90,0.00,,,0.00,WUHU216HW,2013-05-24 12:17:00,
2013-05-24 05:22:00,46.6,43.9,30.29,NNW,338,0.0,0.0,90,0.00,,,0.00,WUHU216HW,2013-05-24 12:22:00,
2013-05-24 05:27:00,46.8,44.1,30.29,NNW,338,0.0,0.0,90,0.00,,,0.00,WUHU216HW,2013-05-24 12:27:00,
2013-05-24 05:32:00,46.8,44.1,30.29,NNW,338,0.0,0.0,90,0.00,,,0.00,WUHU216HW,2013-05-24 12:32:00,
2013-05-24 05:37:00,46.8,44.1,30.30,NNW,338,0.0,0.0,90,0.00,,,0.00,WUHU216HW,2013-05-24 12:37:00,
2013-05-24 05:42:00,46.8,44.1,30.30,NNW,338,0.0,0.0,90,0.00,,,0.00,WUHU216HW,2013-05-24 12:42:00,
2013-05-24 05:47:00,47.0,44.3,30.30,NNW,338,0.0,0.0,90,0.00,,,0.00,WUHU216HW,2013-05-24 12:47:00,
2013-05-24 05:52:00,47.0,44.3,30.30,NNW,338,0.0,0.0,90,0.00,,,0.00,WUHU216HW,2013-05-24 12:52:00,
2013-05-24 05:57:00,47.0,44.3,30.30,NNW,338,0.0,0.0,90,0.00,,,0.00,WUHU216HW,2013-05-24 12:57:00,
2013-05-24 06:02:00,47.2,44.5,30.30,NNW,338,0.0,0.0,90,0.00,,,0.00,WUHU216HW,2013-05-24 13:02:00,
2013-05-24 06:07:00,47.3,44.6,30.30,NNW,338,0.0,0.0,90,0.00,,,0.00,WUHU216HW,2013-05-24 13:07:00,
2013-05-24 06:12:00,47.3,44.6,30.30,NNW,338,0.0,0.0,90,0.00,,,0.00,WUHU216HW,2013-05-24 13:12:00,
2013-05-24 06:17:00,47.3,44.6,30.30,NNW,338,0.0,0.0,90,0.00,,,0.00,WUHU216HW,2013-05-24 13:17:00,
2013-05-24 06:22:00,47.3,44.6,30.30,NNW,338,0.0,0.0,90,0.00,,,0.00,WUHU216HW,2013-05-24 13:22:00,
2013-05-24 06:27:00,47.5,44.8,30.30,NNW,338,0.0,0.0,90,0.00,,,0.00,WUHU216HW,2013-05-24 13:27:00,
2013-05-24 06:32:00,47.3,44.6,30.31,NNW,338,0.0,0.0,90,0.00,,,0.00,WUHU216HW,2013-05-24 13:32:00,
2013-05-24 06:37:00,47.5,44.8,30.31,NNW,338,0.0,0.0,90,0.00,,,0.00,WUHU216HW,2013-05-24 13:37:00,
2013-05-24 06:42:00,47.5,44.8,30.30,NNW,338,0.0,0.0,90,0.00,,,0.00,WUHU216HW,2013-05-24 13:42:00,
2013-05-24 06:47:00,47.7,45.0,30.30,NNW,338,0.0,0.0,90,0.00,,,0.00,WUHU216HW,2013-05-24 13:47:00,
2013-05-24 06:52:00,47.9,45.2,30.30,NNW,338,0.0,0.0,90,0.00,,,0.00,WUHU216HW,2013-05-24 13:52:00,
2013-05-24 06:57:00,47.9,45.2,30.30,NNW,338,0.0,0.0,90,0.00,,,0.00,WUHU216HW,2013-05-24 13:57:00,
2013-05-24 07:02:00,48.1,45.4,30.30,NNW,338,0.0,0.0,90,0.00,,,0.00,WUHU216HW,2013-05-24 14:02:00,
2013-05-24 07:07:00,48.1,45.4,30.30,WSW,248,0.7,0.7,90,0.00,,,0.00,WUHU216HW,2013-05-24 14:07:00,
2013-05-24 07:12:00,48.1,45.4,30.31,WSW,248,1.3,1.3,90,0.00,,,0.00,WUHU216HW,2013-05-24 14:12:00,
2013-05-24 07:17:00,48.1,45.6,30.30,WSW,248,0.0,1.3,91,0.00,,,0.00,WUHU216HW,2013-05-24 14:17:00,
2013-05-24 07:22:00,48.1,45.4,30.30,WSW,248,0.0,1.1,90,0.00,,,0.00,WUHU216HW,2013-05-24 14:22:00,
2013-05-24 07:27:00,48.4,46.0,30.31,WSW,248,0.0,0.0,91,0.00,,,0.00,WUHU216HW,2013-05-24 14:27:00,
2013-05-24 07:32:00,48.6,45.9,30.30,WSW,248,0.0,0.0,90,0.00,,,0.00,WUHU216HW,2013-05-24 14:32:00,
2013-05-24 07:37:00,48.6,45.9,30.30,WSW,248,0.0,0.0,90,0.00,,,0.00,WUHU216HW,2013-05-24 14:37:00,
2013-05-24 07:42:00,48.6,45.9,30.31,WSW,248,0.0,0.2,90,0.00,,,0.00,WUHU216HW,2013-05-24 14:42:00,
2013-05-24 07:47:00,48.8,46.0,30.31,WSW,248,0.7,1.1,90,0.00,,,0.00,WUHU216HW,2013-05-24 14:47:00,
2013-05-24 07:52:00,48.8,46.0,30.31,SW,225,0.0,1.8,90,0.00,,,0.00,WUHU216HW,2013-05-24 14:52:00,
2013-05-24 07:57:00,48.8,46.0,30.31,WSW,248,1.3,1.8,90,0.00,,,0.00,WUHU216HW,2013-05-24 14:57:00,
2013-05-24 08:02:00,48.8,46.0,30.31,WSW,248,0.0,1.3,90,0.00,,,0.00,WUHU216HW,2013-05-24 15:02:00,
2013-05-24 08:07:00,49.1,46.4,30.31,WSW,248,0.0,0.4,90,0.00,,,0.00,WUHU216HW,2013-05-24 15:07:00,
2013-05-24 08:12:00,49.1,46.4,30.31,SSE,158,0.0,0.9,90,0.00,,,0.00,WUHU216HW,2013-05-24 15:12:00,
2013-05-24 08:17:00,49.3,46.5,30.31,SSE,158,0.0,0.9,90,0.00,,,0.00,WUHU216HW,2013-05-24 15:17:00,
2013-05-24 08:22:00,49.7,46.8,30.31,SSE,158,0.0,0.0,90,0.00,,,0.00,WUHU216HW,2013-05-24 15:22:00,
2013-05-24 08:27:00,49.7,46.8,30.31,SSE,158,0.0,0.0,90,0.00,,,0.00,WUHU216HW,2013-05-24 15:27:00,
2013-05-24 08:32:00,50.0,47.2,30.31,South,180,0.2,0.2,90,0.00,,,0.00,WUHU216HW,2013-05-24 15:32:00,
2013-05-24 08:37:00,50.4,47.3,30.31,South,180,0.0,0.2,89,0.00,,,0.00,WUHU216HW,2013-05-24 15:37:00,
2013-05-24 08:42:00,50.6,47.4,30.31,South,180,0.0,0.2,89,0.00,,,0.00,WUHU216HW,2013-05-24 15:42:00,
2013-05-24 08:47:00,50.8,47.6,30.32,SSW,203,0.9,0.9,89,0.00,,,0.00,WUHU216HW,2013-05-24 15:47:00,
2013-05-24 08:52:00,50.8,47.6,30.32,SSW,203,0.0,0.9,89,0.00,,,0.00,WUHU216HW,2013-05-24 15:52:00,
2013-05-24 08:57:00,51.1,48.0,30.32,SSW,203,0.0,1.1,89,0.00,,,0.00,WUHU216HW,2013-05-24 15:57:00,
2013-05-24 09:02:00,51.3,48.2,30.32,SSW,203,0.0,1.1,89,0.00,,,0.00,WUHU216HW,2013-05-24 16:02:00,
2013-05-24 09:07:00,51.5,48.0,30.31,SSW,203,0.0,0.4,88,0.00,,,0.00,WUHU216HW,2013-05-24 16:07:00,
2013-05-24 09:12:00,51.5,47.7,30.32,SSW,203,0.0,0.4,87,0.00,,,0.00,WUHU216HW,2013-05-24 16:12:00,
2013-05-24 09:17:00,51.5,47.7,30.32,SSW,203,0.0,0.0,87,0.00,,,0.00,WUHU216HW,2013-05-24 16:17:00,
2013-05-24 09:22:00,51.7,47.5,30.32,SSW,203,0.0,0.0,86,0.00,,,0.00,WUHU216HW,2013-05-24 16:22:00,
2013-05-24 09:27:00,51.8,47.7,30.32,SSW,203,0.0,1.1,86,0.00,,,0.00,WUHU216HW,2013-05-24 16:27:00,
2013-05-24 09:32:00,52.0,47.6,30.32,NW,315,0.0,1.1,85,0.00,,,0.00,WUHU216HW,2013-05-24 16:32:00,
2013-05-24 09:37:00,52.2,47.8,30.32,West,270,0.0,1.1,85,0.00,,,0.00,WUHU216HW,2013-05-24 16:37:00,
2013-05-24 09:42:00,52.2,47.5,30.32,SW,225,0.0,1.1,84,0.00,,,0.00,WUHU216HW,2013-05-24 16:42:00,
2013-05-24 09:47:00,52.6,48.2,30.32,WNW,293,0.0,1.1,85,0.00,,,0.00,WUHU216HW,2013-05-24 16:47:00,
2013-05-24 09:52:00,52.7,48.3,30.32,SSW,203,0.4,2.0,85,0.00,,,0.00,WUHU216HW,2013-05-24 16:52:00,
2013-05-24 09:57:00,52.9,48.3,30.32,SSW,203,0.0,2.0,84,0.00,,,0.00,WUHU216HW,2013-05-24 16:57:00,
2013-05-24 10:02:00,52.9,48.3,30.33,SSW,203,0.0,0.4,84,0.00,,,0.00,WUHU216HW,2013-05-24 17:02:00,
2013-05-24 10:07:00,52.9,48.3,30.33,SSW,203,0.0,0.2,84,0.00,,,0.00,WUHU216HW,2013-05-24 17:07:00,
2013-05-24 10:12:00,52.7,48.1,30.33,SSW,203,0.0,0.4,84,0.00,,,0.00,WUHU216HW,2013-05-24 17:12:00,
2013-05-24 10:17:00,52.7,47.7,30.33,SSW,203,0.0,0.4,83,0.00,,,0.00,WUHU216HW,2013-05-24 17:17:00,
2013-05-24 10:22:00,52.7,47.7,30.33,SSW,203,0.4,0.4,83,0.00,,,0.00,WUHU216HW,2013-05-24 17:22:00,
2013-05-24 10:27:00,52.7,47.7,30.33,South,180,0.0,1.6,83,0.00,,,0.00,WUHU216HW,2013-05-24 17:27:00,
2013-05-24 10:32:00,52.9,47.9,30.33,SSE,158,0.0,1.8,83,0.00,,,0.00,WUHU216HW,2013-05-24 17:32:00,
2013-05-24 10:37:00,52.9,47.9,30.33,South,180,0.4,1.8,83,0.00,,,0.00,WUHU216HW,2013-05-24 17:37:00,
2013-05-24 10:42:00,53.3,48.0,30.33,SW,225,0.0,1.8,82,0.00,,,0.00,WUHU216HW,2013-05-24 17:42:00,
2013-05-24 10:47:00,53.5,48.2,30.33,SSW,203,0.0,1.8,82,0.00,,,0.00,WUHU216HW,2013-05-24 17:47:00,
2013-05-24 10:52:00,53.6,48.3,30.33,SSW,203,0.0,1.6,82,0.00,,,0.00,WUHU216HW,2013-05-24 17:52:00,
2013-05-24 10:57:00,53.6,48.0,30.33,WNW,293,0.0,1.6,81,0.00,,,0.00,WUHU216HW,2013-05-24 17:57:00,
2013-05-24 11:02:00,53.8,48.2,30.33,South,180,1.3,3.4,81,0.00,,,0.00,WUHU216HW,2013-05-24 18:02:00,
2013-05-24 11:07:00,54.2,48.2,30.33,SW,225,2.0,3.4,80,0.00,,,0.00,WUHU216HW,2013-05-24 18:07:00,
2013-05-24 11:12:00,54.4,48.0,30.33,WNW,293,0.2,2.0,79,0.00,,,0.00,WUHU216HW,2013-05-24 18:12:00,
2013-05-24 11:17:00,54.4,48.0,30.33,SW,225,0.2,2.5,79,0.00,,,0.00,WUHU216HW,2013-05-24 18:17:00,
2013-05-24 11:22:00,54.4,47.6,30.33,West,270,0.2,2.5,78,0.00,,,0.00,WUHU216HW,2013-05-24 18:22:00,
2013-05-24 11:27:00,54.4,48.0,30.33,SSW,203,0.0,1.8,79,0.00,,,0.00,WUHU216HW,2013-05-24 18:27:00,
2013-05-24 11:32:00,54.5,48.2,30.33,SW,225,0.7,1.1,79,0.00,,,0.00,WUHU216HW,2013-05-24 18:32:00,
2013-05-24 11:37:00,54.7,48.3,30.33,SW,225,2.5,2.5,79,0.00,,,0.00,WUHU216HW,2013-05-24 18:37:00,
2013-05-24 11:42:00,54.9,48.2,30.33,SSW,203,1.1,2.5,78,0.00,,,0.00,WUHU216HW,2013-05-24 18:42:00,
2013-05-24 11:47:00,55.3,48.5,30.33,SSE,158,1.3,2.7,78,0.00,,,0.00,WUHU216HW,2013-05-24 18:47:00,
2013-05-24 11:52:00,55.4,48.3,30.33,WSW,248,2.0,2.7,77,0.00,,,0.00,WUHU216HW,2013-05-24 18:52:00,
2013-05-24 11:57:00,55.8,48.6,30.33,SE,135,0.9,2.0,77,0.00,,,0.00,WUHU216HW,2013-05-24 18:57:00,
2013-05-24 12:02:00,56.5,48.0,30.33,SW,225,2.5,4.0,73,0.00,,,0.00,WUHU216HW,2013-05-24 19:02:00,
2013-05-24 12:07:00,57.2,48.6,30.33,South,180,2.0,4.0,73,0.00,,,0.00,WUHU216HW,2013-05-24 19:07:00,
2013-05-24 12:12:00,58.0,49.0,30.33,WSW,248,0.9,3.6,72,0.00,,,0.00,WUHU216HW,2013-05-24 19:12:00,
2013-05-24 12:17:00,58.3,47.8,30.33,SSW,203,2.5,3.1,68,0.00,,,0.00,WUHU216HW,2013-05-24 19:17:00,
2013-05-24 12:22:00,59.2,49.5,30.33,South,180,2.7,4.5,70,0.00,,,0.00,WUHU216HW,2013-05-24 19:22:00,
2013-05-24 12:27:00,60.1,48.8,30.33,WSW,248,0.2,4.5,66,0.00,,,0.00,WUHU216HW,2013-05-24 19:27:00,
2013-05-24 12:32:00,60.5,49.2,30.33,WSW,248,1.8,2.2,66,0.00,,,0.00,WUHU216HW,2013-05-24 19:32:00,
2013-05-24 12:37:00,60.5,48.7,30.33,SSW,203,3.6,4.5,65,0.00,,,0.00,WUHU216HW,2013-05-24 19:37:00,
2013-05-24 12:42:00,60.1,48.8,30.33,SW,225,1.1,4.5,66,0.00,,,0.00,WUHU216HW,2013-05-24 19:42:00,
2013-05-24 12:47:00,59.6,48.3,30.33,South,180,1.6,4.0,66,0.00,,,0.00,WUHU216HW,2013-05-24 19:47:00,
2013-05-24 12:51:00,59.0,47.7,30.33,SW,225,1.6,4.0,66,0.00,,,0.00,WUHU216HW,2013-05-24 19:51:00,
2013-05-24 12:56:00,58.5,47.5,30.33,SSW,203,1.6,2.5,67,0.00,,,0.00,WUHU216HW,2013-05-24 19:56:00,
2013-05-24 13:01:00,58.1,47.6,30.33,SSE,158,0.0,1.8,68,0.00,,,0.00,WUHU216HW,2013-05-24 20:01:00,
2013-05-24 13:06:00,57.8,47.7,30.33,South,180,0.4,1.8,69,0.00,,,0.00,WUHU216HW,2013-05-24 20:06:00,
2013-05-24 13:11:00,57.6,47.1,30.33,SW,225,2.7,3.1,68,0.00,,,0.00,WUHU216HW,2013-05-24 20:11:00,
2013-05-24 13:16:00,57.4,46.1,30.33,SSE,158,0.2,3.4,66,0.00,,,0.00,WUHU216HW,2013-05-24 20:16:00,
2013-05-24 13:21:00,57.2,46.4,30.33,SW,225,1.8,3.4,67,0.00,,,0.00,WUHU216HW,2013-05-24 20:21:00,
2013-05-24 13:26:00,57.2,45.9,30.33,South,180,2.2,2.9,66,0.00,,,0.00,WUHU216HW,2013-05-24 20:26:00,
2013-05-24 13:31:00,57.2,45.5,30.33,WSW,248,3.1,3.6,65,0.00,,,0.00,WUHU216HW,2013-05-24 20:31:00,
2013-05-24 13:36:00,57.6,47.1,30.33,SSW,203,1.1,3.6,68,0.00,,,0.00,WUHU216HW,2013-05-24 20:36:00,
2013-05-24 13:41:00,57.8,46.9,30.33,SW,225,2.5,5.1,67,0.00,,,0.00,WUHU216HW,2013-05-24 20:41:00,
2013-05-24 13:46:00,57.8,46.4,30.34,SW,225,1.8,5.1,66,0.00,,,0.00,WUHU216HW,2013-05-24 20:46:00,
2013-05-24 13:51:00,57.8,47.3,30.33,ESE,113,0.7,4.3,68,0.00,,,0.00,WUHU216HW,2013-05-24 20:51:00,
2013-05-24 13:56:00,57.6,46.3,30.34,WSW,248,4.0,4.5,66,0.00,,,0.00,WUHU216HW,2013-05-24 20:56:00,
2013-05-24 14:01:00,57.2,45.9,30.34,SW,225,3.1,4.5,66,0.00,,,0.00,WUHU216HW,2013-05-24 21:01:00,
2013-05-24 14:06:00,57.1,45.8,30.33,SW,225,0.4,4.3,66,0.00,,,0.00,WUHU216HW,2013-05-24 21:06:00,
2013-05-24 14:11:00,57.1,46.5,30.33,WSW,248,0.0,4.3,68,0.00,,,0.00,WUHU216HW,2013-05-24 21:11:00,
2013-05-24 14:16:00,57.2,47.2,30.33,South,180,0.0,2.9,69,0.00,,,0.00,WUHU216HW,2013-05-24 21:16:00,
2013-05-24 14:21:00,57.4,47.4,30.33,SW,225,0.4,4.0,69,0.00,,,0.00,WUHU216HW,2013-05-24 21:21:00,
2013-05-24 14:26:00,57.8,46.9,30.33,SSE,158,0.0,4.0,67,0.00,,,0.00,WUHU216HW,2013-05-24 21:26:00,
2013-05-24 14:31:00,58.0,47.4,30.33,SSW,203,2.5,2.5,68,0.00,,,0.00,WUHU216HW,2013-05-24 21:31:00,
2013-05-24 14:36:00,58.3,47.8,30.33,South,180,0.4,2.5,68,0.00,,,0.00,WUHU216HW,2013-05-24 21:36:00,
2013-05-24 14:41:00,58.7,48.2,30.33,South,180,1.1,1.8,68,0.00,,,0.00,WUHU216HW,2013-05-24 21:41:00,
2013-05-24 14:46:00,59.8,48.8,30.33,SSW,203,3.6,3.6,67,0.00,,,0.00,WUHU216HW,2013-05-24 21:46:00,
2013-05-24 14:51:00,60.7,48.9,30.33,SSE,158,4.0,4.0,65,0.00,,,0.00,WUHU216HW,2013-05-24 21:51:00,
2013-05-24 14:56:00,60.7,48.9,30.33,SSE,158,4.0,4.0,65,0.00,,,0.00,WUHU216HW,2013-05-24 21:56:00,
2013-05-24 15:01:00,62.1,49.0,30.33,South,180,4.0,4.0,62,0.00,,,0.00,WUHU216HW,2013-05-24 22:01:00,
2013-05-24 15:06:00,62.5,49.2,30.33,SW,225,1.8,4.0,62,0.00,,,0.00,WUHU216HW,2013-05-24 22:06:00,
2013-05-24 15:11:00,62.6,46.6,30.32,NNE,23,1.1,1.8,56,0.00,,,0.00,WUHU216HW,2013-05-24 22:11:00,
2013-05-24 15:16:00,62.3,46.8,30.32,SW,225,1.1,2.7,57,0.00,,,0.00,WUHU216HW,2013-05-24 22:16:00,
2013-05-24 15:21:00,61.9,48.0,30.33,WSW,248,1.6,3.1,60,0.00,,,0.00,WUHU216HW,2013-05-24 22:21:00,
2013-05-24 15:26:00,61.7,46.4,30.33,WNW,293,1.6,3.1,57,0.00,,,0.00,WUHU216HW,2013-05-24 22:26:00,
2013-05-24 15:31:00,61.6,47.6,30.32,SSW,203,2.5,2.7,60,0.00,,,0.00,WUHU216HW,2013-05-24 22:31:00,
2013-05-24 15:36:00,62.1,47.6,30.32,SSW,203,3.4,4.0,59,0.00,,,0.00,WUHU216HW,2013-05-24 22:36:00,
2013-05-24 15:41:00,62.3,46.8,30.32,SSW,203,1.8,4.0,57,0.00,,,0.00,WUHU216HW,2013-05-24 22:41:00,
2013-05-24 15:46:00,62.6,47.6,30.32,SSW,203,0.9,4.5,58,0.00,,,0.00,WUHU216HW,2013-05-24 22:46:00,
2013-05-24 15:51:00,62.8,45.4,30.32,West,270,4.3,4.5,53,0.00,,,0.00,WUHU216HW,2013-05-24 22:51:00,
2013-05-24 15:56:00,62.3,45.8,30.32,SW,225,3.4,5.1,55,0.00,,,0.00,WUHU216HW,2013-05-24 22:56:00,
2013-05-24 16:01:00,62.1,44.2,30.32,NNW,338,2.0,5.1,52,0.00,,,0.00,WUHU216HW,2013-05-24 23:01:00,
2013-05-24 16:06:00,62.1,45.2,30.32,South,180,2.0,2.9,54,0.00,,,0.00,WUHU216HW,2013-05-24 23:06:00,
2013-05-24 16:11:00,62.5,44.6,30.32,SW,225,2.5,4.9,52,0.00,,,0.00,WUHU216HW,2013-05-24 23:11:00,
2013-05-24 16:16:00,62.8,44.4,30.32,SE,135,4.7,4.9,51,0.00,,,0.00,WUHU216HW,2013-05-24 23:16:00,
2013-05-24 16:21:00,62.8,44.9,30.32,SW,225,6.7,6.9,52,0.00,,,0.00,WUHU216HW,2013-05-24 23:21:00,
2013-05-24 16:26:00,62.5,45.6,30.32,South,180,1.8,6.9,54,0.00,,,0.00,WUHU216HW,2013-05-24 23:26:00,
2013-05-24 16:31:00,62.3,46.4,30.32,WSW,248,1.8,4.3,56,0.00,,,0.00,WUHU216HW,2013-05-24 23:31:00,
2013-05-24 16:36:00,62.1,46.2,30.32,SSE,158,1.8,1.8,56,0.00,,,0.00,WUHU216HW,2013-05-24 23:36:00,
2013-05-24 16:41:00,61.9,46.5,30.32,SW,225,2.7,2.7,57,0.00,,,0.00,WUHU216HW,2013-05-24 23:41:00,
2013-05-24 16:46:00,61.7,44.9,30.32,WSW,248,4.0,4.0,54,0.00,,,0.00,WUHU216HW,2013-05-24 23:46:00,
2013-05-24 16:51:00,61.6,44.2,30.32,South,180,1.1,4.0,53,0.00,,,0.00,WUHU216HW,2013-05-24 23:51:00,
2013-05-24 16:56:00,61.6,45.2,30.32,South,180,3.1,4.0,55,0.00,,,0.00,WUHU216HW,2013-05-24 23:56:00,
2013-05-24 17:01:00,61.6,44.2,30.32,SW,225,3.1,4.5,53,0.00,,,0.00,WUHU216HW,2013-05-25 00:01:00,
2013-05-24 17:06:00,61.6,44.2,30.32,WSW,248,3.1,6.0,53,0.00,,,0.00,WUHU216HW,2013-05-25 00:06:00,
2013-05-24 17:11:00,61.7,44.4,30.32,SW,225,4.7,6.0,53,0.00,,,0.00,WUHU216HW,2013-05-25 00:11:00,
2013-05-24 17:16:00,61.6,45.2,30.32,South,180,2.9,4.7,55,0.00,,,0.00,WUHU216HW,2013-05-25 00:16:00,
2013-05-24 17:21:00,61.7,44.9,30.32,SSE,158,2.5,5.4,54,0.00,,,0.00,WUHU216HW,2013-05-25 00:21:00,
2013-05-24 17:26:00,61.7,44.4,30.32,SSW,203,2.7,5.4,53,0.00,,,0.00,WUHU216HW,2013-05-25 00:26:00,
2013-05-24 17:31:00,61.9,45.6,30.32,SW,225,1.6,2.7,55,0.00,,,0.00,WUHU216HW,2013-05-25 00:31:00,
2013-05-24 17:36:00,62.1,45.7,30.32,SSW,203,2.5,3.4,55,0.00,,,0.00,WUHU216HW,2013-05-25 00:36:00,
2013-05-24 17:41:00,62.1,45.2,30.32,SSW,203,1.1,3.4,54,0.00,,,0.00,WUHU216HW,2013-05-25 00:41:00,
2013-05-24 17:46:00,61.9,45.6,30.32,SW,225,0.0,2.5,55,0.00,,,0.00,WUHU216HW,2013-05-25 00:46:00,
2013-05-24 17:51:00,61.6,45.2,30.32,WSW,248,1.8,3.8,55,0.00,,,0.00,WUHU216HW,2013-05-25 00:51:00,
2013-05-24 17:56:00,61.6,45.7,30.32,SSW,203,2.5,3.8,56,0.00,,,0.00,WUHU216HW,2013-05-25 00:56:00,
2013-05-24 18:01:00,61.6,45.7,30.32,SE,135,1.1,2.9,56,0.00,,,0.00,WUHU216HW,2013-05-25 01:01:00,
2013-05-24 18:06:00,61.7,45.8,30.32,SSE,158,1.8,2.2,56,0.00,,,0.00,WUHU216HW,2013-05-25 01:06:00,
2013-05-24 18:11:00,61.6,46.2,30.32,South,180,1.6,2.2,57,0.00,,,0.00,WUHU216HW,2013-05-25 01:11:00,
2013-05-24 18:16:00,61.6,46.2,30.32,WSW,248,1.8,4.0,57,0.00,,,0.00,WUHU216HW,2013-05-25 01:16:00,
2013-05-24 18:21:00,61.4,46.0,30.32,SW,225,3.6,4.0,57,0.00,,,0.00,WUHU216HW,2013-05-25 01:21:00,
2013-05-24 18:26:00,61.2,45.4,30.32,SSE,158,3.4,3.6,56,0.00,,,0.00,WUHU216HW,2013-05-25 01:26:00,
2013-05-24 18:31:00,61.0,45.2,30.32,SW,225,3.4,3.4,56,0.00,,,0.00,WUHU216HW,2013-05-25 01:31:00,
2013-05-24 18:36:00,61.0,45.2,30.32,SW,225,0.2,3.4,56,0.00,,,0.00,WUHU216HW,2013-05-25 01:36:00,
2013-05-24 18:41:00,61.0,45.7,30.33,SSW,203,2.7,3.4,57,0.00,,,0.00,WUHU216HW,2013-05-25 01:41:00,
2013-05-24 18:46:00,60.8,45.6,30.32,SSW,203,0.4,3.1,57,0.00,,,0.00,WUHU216HW,2013-05-25 01:46:00,
2013-05-24 18:51:00,60.8,45.6,30.33,SSE,158,0.7,3.1,57,0.00,,,0.00,WUHU216HW,2013-05-25 01:51:00,
2013-05-24 18:56:00,60.8,46.0,30.33,SSE,158,1.6,2.5,58,0.00,,,0.00,WUHU216HW,2013-05-25 01:56:00,
2013-05-24 19:01:00,60.7,45.8,30.33,SW,225,2.2,2.5,58,0.00,,,0.00,WUHU216HW,2013-05-25 02:01:00,
2013-05-24 19:06:00,60.5,45.2,30.32,SW,225,1.3,3.6,57,0.00,,,0.00,WUHU216HW,2013-05-25 02:06:00,
2013-05-24 19:11:00,60.3,45.5,30.33,SSW,203,2.5,3.6,58,0.00,,,0.00,WUHU216HW,2013-05-25 02:11:00,
2013-05-24 19:16:00,60.1,45.8,30.33,SW,225,3.8,6.9,59,0.00,,,0.00,WUHU216HW,2013-05-25 02:16:00,
2013-05-24 19:21:00,59.8,45.9,30.33,WSW,248,2.5,6.9,60,0.00,,,0.00,WUHU216HW,2013-05-25 02:21:00,
2013-05-24 19:26:00,59.8,46.4,30.33,WSW,248,4.9,5.1,61,0.00,,,0.00,WUHU216HW,2013-05-25 02:26:00,
2013-05-24 19:31:00,59.4,46.4,30.33,WSW,248,4.7,6.3,62,0.00,,,0.00,WUHU216HW,2013-05-25 02:31:00,
2013-05-24 19:36:00,59.0,46.5,30.34,SW,225,4.3,6.3,63,0.00,,,0.00,WUHU216HW,2013-05-25 02:36:00,
2013-05-24 19:41:00,58.9,46.3,30.33,WSW,248,3.4,4.9,63,0.00,,,0.00,WUHU216HW,2013-05-25 02:41:00,
2013-05-24 19:46:00,58.7,46.5,30.34,SW,225,3.4,3.8,64,0.00,,,0.00,WUHU216HW,2013-05-25 02:46:00,
2013-05-24 19:51:00,58.7,46.5,30.34,SSW,203,4.9,4.9,64,0.00,,,0.00,WUHU216HW,2013-05-25 02:51:00,
2013-05-24 19:56:00,58.5,46.4,30.34,SSE,158,0.2,4.9,64,0.00,,,0.00,WUHU216HW,2013-05-25 02:56:00,
2013-05-24 20:01:00,58.3,46.2,30.34,WSW,248,4.0,4.0,64,0.00,,,0.00,WUHU216HW,2013-05-25 03:01:00,
2013-05-24 20:06:00,58.1,46.8,30.34,SSW,203,2.0,4.0,66,0.00,,,0.00,WUHU216HW,2013-05-25 03:06:00,
2013-05-24 20:11:00,57.8,46.9,30.34,SSW,203,0.2,2.5,67,0.00,,,0.00,WUHU216HW,2013-05-25 03:11:00,
2013-05-24 20:16:00,57.4,46.9,30.34,SSE,158,0.4,2.9,68,0.00,,,0.00,WUHU216HW,2013-05-25 03:16:00,
2013-05-24 20:21:00,57.2,46.7,30.34,SW,225,1.1,2.9,68,0.00,,,0.00,WUHU216HW,2013-05-25 03:21:00,
2013-05-24 20:26:00,57.1,46.5,30.34,WSW,248,1.1,1.8,68,0.00,,,0.00,WUHU216HW,2013-05-25 03:26:00,
2013-05-24 20:30:00,57.1,47.0,30.34,SW,225,0.7,1.8,69,0.00,,,0.00,WUHU216HW,2013-05-25 03:30:00,
2013-05-24 20:35:00,56.9,46.8,30.34,SE,135,0.7,1.6,69,0.00,,,0.00,WUHU216HW,2013-05-25 03:35:00,
2013-05-24 20:40:00,56.7,47.1,30.34,WSW,248,0.0,1.8,70,0.00,,,0.00,WUHU216HW,2013-05-25 03:40:00,
2013-05-24 20:45:00,56.5,46.9,30.35,SW,225,0.0,1.8,70,0.00,,,0.00,WUHU216HW,2013-05-25 03:45:00,
2013-05-24 20:50:00,56.5,46.9,30.35,SW,225,0.4,1.8,70,0.00,,,0.00,WUHU216HW,2013-05-25 03:50:00,
2013-05-24 20:55:00,56.5,46.9,30.35,SW,225,1.3,1.8,70,0.00,,,0.00,WUHU216HW,2013-05-25 03:55:00,
2013-05-24 21:00:00,56.3,47.1,30.35,SE,135,0.2,1.3,71,0.00,,,0.00,WUHU216HW,2013-05-25 04:00:00,
2013-05-24 21:01:00,56.3,47.1,30.35,SE,135,0.2,1.3,71,0.00,,,0.00,WUHU216HW,2013-05-25 04:01:00,
2013-05-24 21:06:00,56.3,47.1,30.35,SW,225,0.2,1.1,71,0.00,,,0.00,WUHU216HW,2013-05-25 04:06:00,
2013-05-24 21:11:00,56.3,47.1,30.35,South,180,2.7,4.0,71,0.00,,,0.00,WUHU216HW,2013-05-25 04:11:00,
2013-05-24 21:16:00,56.2,46.9,30.35,SSE,158,0.2,4.0,71,0.00,,,0.00,WUHU216HW,2013-05-25 04:16:00,
2013-05-24 21:21:00,56.2,46.9,30.35,SSE,158,1.1,2.7,71,0.00,,,0.00,WUHU216HW,2013-05-25 04:21:00,
2013-05-24 21:26:00,56.0,47.4,30.36,NNE,23,0.2,5.4,73,0.00,,,0.00,WUHU216HW,2013-05-25 04:26:00,
2013-05-24 21:31:00,55.8,47.3,30.36,SSW,203,0.9,5.4,73,0.00,,,0.00,WUHU216HW,2013-05-25 04:31:00,
2013-05-24 21:36:00,55.4,47.3,30.36,South,180,0.7,2.7,74,0.00,,,0.00,WUHU216HW,2013-05-25 04:36:00,
2013-05-24 21:41:00,55.3,47.1,30.36,WSW,248,0.0,2.5,74,0.00,,,0.00,WUHU216HW,2013-05-25 04:41:00,
2013-05-24 21:46:00,55.1,48.0,30.36,SW,225,2.9,2.9,77,0.00,,,0.00,WUHU216HW,2013-05-25 04:46:00,
2013-05-24 21:51:00,54.7,47.3,30.36,South,180,5.1,5.1,76,0.00,,,0.00,WUHU216HW,2013-05-25 04:51:00,
2013-05-24 21:56:00,54.7,47.3,30.36,SSW,203,0.7,5.1,76,0.00,,,0.00,WUHU216HW,2013-05-25 04:56:00,
2013-05-24 22:01:00,54.5,47.4,30.36,SW,225,2.9,3.4,77,0.00,,,0.00,WUHU216HW,2013-05-25 05:01:00,
2013-05-24 22:06:00,54.4,47.6,30.37,South,180,1.8,3.4,78,0.00,,,0.00,WUHU216HW,2013-05-25 05:06:00,
2013-05-24 22:11:00,54.2,47.8,30.37,SSW,203,1.6,3.4,79,0.00,,,0.00,WUHU216HW,2013-05-25 05:11:00,
2013-05-24 22:16:00,54.0,47.7,30.36,SW,225,1.6,2.7,79,0.00,,,0.00,WUHU216HW,2013-05-25 05:16:00,
2013-05-24 22:21:00,53.8,47.5,30.36,West,270,2.5,2.7,79,0.00,,,0.00,WUHU216HW,2013-05-25 05:21:00,
2013-05-24 22:26:00,53.8,47.5,30.36,SSW,203,0.4,2.5,79,0.00,,,0.00,WUHU216HW,2013-05-25 05:26:00,
2013-05-24 22:31:00,53.8,47.9,30.36,SW,225,0.7,2.0,80,0.00,,,0.00,WUHU216HW,2013-05-25 05:31:00,
2013-05-24 22:36:00,53.8,48.2,30.36,SW,225,2.0,2.0,81,0.00,,,0.00,WUHU216HW,2013-05-25 05:36:00,
2013-05-24 22:41:00,53.6,47.7,30.36,SSW,203,0.4,2.0,80,0.00,,,0.00,WUHU216HW,2013-05-25 05:41:00,
2013-05-24 22:46:00,53.6,47.7,30.36,SW,225,2.5,2.9,80,0.00,,,0.00,WUHU216HW,2013-05-25 05:46:00,
2013-05-24 22:51:00,53.5,48.2,30.36,SW,225,3.4,3.4,82,0.00,,,0.00,WUHU216HW,2013-05-25 05:51:00,
2013-05-24 22:56:00,53.3,47.6,30.35,SSW,203,0.9,3.4,81,0.00,,,0.00,WUHU216HW,2013-05-25 05:56:00,
2013-05-24 23:01:00,53.3,47.6,30.36,SSE,158,1.1,2.9,81,0.00,,,0.00,WUHU216HW,2013-05-25 06:01:00,
2013-05-24 23:06:00,53.3,47.6,30.35,South,180,1.1,2.7,81,0.00,,,0.00,WUHU216HW,2013-05-25 06:06:00,
2013-05-24 23:11:00,53.3,47.6,30.36,South,180,2.0,2.7,81,0.00,,,0.00,WUHU216HW,2013-05-25 06:11:00,
2013-05-24 23:16:00,53.3,47.6,30.35,SSW,203,0.0,2.0,81,0.00,,,0.00,WUHU216HW,2013-05-25 06:16:00,
2013-05-24 23:21:00,53.3,47.6,30.35,SW,225,3.4,3.4,81,0.00,,,0.00,WUHU216HW,2013-05-25 06:21:00,
2013-05-24 23:26:00,53.3,47.6,30.35,SW,225,0.0,3.4,81,0.00,,,0.00,WUHU216HW,2013-05-25 06:26:00,
2013-05-24 23:31:00,53.3,48.0,30.35,WSW,248,2.5,2.5,82,0.00,,,0.00,WUHU216HW,2013-05-25 06:31:00,
2013-05-24 23:36:00,53.3,48.0,30.35,SW,225,2.2,2.5,82,0.00,,,0.00,WUHU216HW,2013-05-25 06:36:00,
2013-05-24 23:41:00,53.3,48.0,30.35,SW,225,4.0,5.8,82,0.00,,,0.00,WUHU216HW,2013-05-25 06:41:00,
2013-05-24 23:46:00,53.3,47.3,30.35,SW,225,0.0,5.8,80,0.00,,,0.00,WUHU216HW,2013-05-25 06:46:00,
2013-05-24 23:51:00,53.1,47.2,30.36,WSW,248,0.0,4.0,80,0.00,,,0.00,WUHU216HW,2013-05-25 06:51:00,
2013-05-24 23:56:00,52.9,47.0,30.35,WSW,248,0.2,2.9,80,0.00,,,0.00,WUHU216HW,2013-05-25 06:56:00,